Time;durP1;ratioP1;P1;durP2;ratioP2;P2;SDS_P1;SDS_P2;PMS_P1;PMS_P2;Temp;Humidity;BMP_temperature;BMP_pressure;BME280_temperature;BME280_humidity;BME280_pressure;Samples;Min_cycle;Max_cycle;Signal;HPM_P1;HPM_P2
2022/04/05 00:00:13;;;;;;;;;;;6.30;99.90;;;;;;5025585;28;19967;-62
2022/04/05 00:02:41;;;;;;;;;;;6.30;99.90;;;;;;5030843;28;19964;-63
2022/04/05 00:05:09;;;;;;;;;;;6.20;99.90;;;;;;5031412;28;19967;-62
2022/04/05 00:07:36;;;;;;;;;;;6.20;99.90;;;;;;5031371;28;20022;-62
2022/04/05 00:10:06;;;;;;;;;;;6.20;99.90;;;;;;5030741;28;20428;-62
2022/04/05 00:12:34;;;;;;;;;;;6.20;99.90;;;;;;5019171;28;20006;-62
2022/04/05 00:15:01;;;;;;;;;;;6.20;99.90;;;;;;5012327;28;20010;-62
2022/04/05 00:17:29;;;;;;;;;;;6.20;99.90;;;;;;5012193;28;20022;-62
2022/04/05 00:19:58;;;;;;;;;;;6.20;99.90;;;;;;5012276;28;20059;-62
2022/04/05 00:22:25;;;;;;;;;;;6.20;99.90;;;;;;5011659;28;20015;-62
2022/04/05 00:24:53;;;;;;;;;;;6.20;99.90;;;;;;5011993;28;19968;-62
2022/04/05 00:27:22;;;;;;;;;;;6.20;99.90;;;;;;5016104;28;19968;-62
2022/04/05 00:29:50;;;;;;;;;;;6.20;99.90;;;;;;5031061;28;20141;-62
2022/04/05 00:32:18;;;;;;;;;;;6.30;99.90;;;;;;5026461;28;20398;-62
2022/04/05 00:34:45;;;;;;;;;;;6.20;99.90;;;;;;5013305;28;20054;-62
2022/04/05 00:37:13;;;;;;;;;;;6.20;99.90;;;;;;5018706;28;20083;-62
2022/04/05 00:39:41;;;;;;;;;;;6.20;99.90;;;;;;5011733;28;20484;-62
2022/04/05 00:42:09;;;;;;;;;;;6.20;99.90;;;;;;5019589;28;20130;-61
2022/04/05 00:44:39;;;;;;;;;;;6.20;99.90;;;;;;5021694;28;20054;-61
2022/04/05 00:47:14;;;;;;;;;;;6.20;99.90;;;;;;5016901;28;20390;-62
2022/04/05 00:49:43;;;;;;;;;;;6.20;99.90;;;;;;5013260;28;20054;-62
2022/04/05 00:52:11;;;;;;;;;;;6.20;99.90;;;;;;5010192;28;19999;-62
2022/04/05 00:54:40;;;;;;;;;;;6.20;99.90;;;;;;5011323;28;20058;-63
2022/04/05 00:57:10;;;;;;;;;;;6.30;99.90;;;;;;5017805;28;20075;-62
2022/04/05 00:59:41;;;;;;;;;;;6.30;99.90;;;;;;5015727;28;19995;-62
2022/04/05 01:02:10;;;;;;;;;;;6.30;99.90;;;;;;5009927;28;20492;-62
2022/04/05 01:04:38;;;;;;;;;;;6.40;99.90;;;;;;5010813;28;20062;-62
2022/04/05 01:07:09;;;;;;;;;;;6.40;99.90;;;;;;5010974;28;20050;-62
2022/04/05 01:09:37;;;;;;;;;;;6.40;99.90;;;;;;5005640;28;20058;-62
2022/04/05 01:12:05;;;;;;;;;;;6.40;99.90;;;;;;5007655;28;19960;-62
2022/04/05 01:14:33;;;;;;;;;;;6.40;99.90;;;;;;5013094;28;20063;-61
2022/04/05 01:17:03;;;;;;;;;;;6.40;99.90;;;;;;5010798;28;20068;-61
2022/04/05 01:19:31;;;;;;;;;;;6.40;99.90;;;;;;5006648;28;20007;-62
2022/04/05 01:21:59;;;;;;;;;;;6.30;99.90;;;;;;5013202;28;20407;-62
2022/04/05 01:24:28;;;;;;;;;;;6.40;99.90;;;;;;5009540;28;20498;-63
2022/04/05 01:26:57;;;;;;;;;;;6.40;99.90;;;;;;5013209;28;20030;-63
2022/04/05 01:29:26;;;;;;;;;;;6.40;99.90;;;;;;5010221;28;19995;-61
2022/04/05 01:31:54;;;;;;;;;;;6.40;99.90;;;;;;5009289;28;19964;-63
2022/04/05 01:34:23;;;;;;;;;;;6.40;99.90;;;;;;5024828;28;19967;-63
2022/04/05 01:36:52;;;;;;;;;;;6.40;99.90;;;;;;5009472;28;20007;-64
2022/04/05 01:39:21;;;;;;;;;;;6.30;99.90;;;;;;5015234;28;20000;-63
2022/04/05 01:41:53;;;;;;;;;;;6.40;99.90;;;;;;5015852;28;19968;-63
2022/04/05 01:44:21;;;;;;;;;;;6.40;99.90;;;;;;5014592;28;19994;-63
2022/04/05 01:46:49;;;;;;;;;;;6.40;99.90;;;;;;5015200;28;19963;-62
2022/04/05 01:49:17;;;;;;;;;;;6.40;99.90;;;;;;5015072;28;20441;-63
2022/04/05 01:51:45;;;;;;;;;;;6.40;99.90;;;;;;5014873;28;20424;-63
2022/04/05 01:54:14;;;;;;;;;;;6.30;99.90;;;;;;5014112;28;20410;-63
2022/04/05 01:56:42;;;;;;;;;;;6.30;99.90;;;;;;5014890;28;19995;-63
2022/04/05 01:59:12;;;;;;;;;;;6.30;99.90;;;;;;5014820;28;20336;-63
2022/04/05 02:01:39;;;;;;;;;;;6.30;99.90;;;;;;5014728;28;20378;-63
2022/04/05 02:04:08;;;;;;;;;;;6.30;99.90;;;;;;5014122;28;19964;-64
2022/04/05 02:06:36;;;;;;;;;;;6.30;99.90;;;;;;5014734;28;19968;-63
2022/04/05 02:09:03;;;;;;;;;;;6.30;99.90;;;;;;5014813;28;20010;-63
2022/04/05 02:11:31;;;;;;;;;;;6.30;99.90;;;;;;5014597;28;19967;-62
2022/04/05 02:13:59;;;;;;;;;;;6.30;99.90;;;;;;5013543;28;19967;-62
2022/04/05 02:16:28;;;;;;;;;;;6.40;99.90;;;;;;5014431;28;19963;-62
2022/04/05 02:18:56;;;;;;;;;;;6.40;99.90;;;;;;5014456;28;19971;-62
2022/04/05 02:21:24;;;;;;;;;;;6.40;99.90;;;;;;5014774;28;20546;-62
2022/04/05 02:23:51;;;;;;;;;;;6.40;99.90;;;;;;5032284;28;19999;-63
2022/04/05 02:26:19;;;;;;;;;;;6.40;99.90;;;;;;5033425;28;19963;-62
2022/04/05 02:28:47;;;;;;;;;;;6.40;99.90;;;;;;5019571;28;20055;-62
2022/04/05 02:31:15;;;;;;;;;;;6.40;99.90;;;;;;5010750;28;20011;-62
2022/04/05 02:33:44;;;;;;;;;;;6.40;99.90;;;;;;5017281;28;19966;-62
2022/04/05 02:36:12;;;;;;;;;;;6.40;99.90;;;;;;5014147;28;19960;-63
2022/04/05 02:38:40;;;;;;;;;;;6.40;99.90;;;;;;5016195;28;20054;-62
2022/04/05 02:41:07;;;;;;;;;;;6.40;99.90;;;;;;5014177;28;20045;-63
2022/04/05 02:43:35;;;;;;;;;;;6.50;99.90;;;;;;5022405;28;19960;-63
2022/04/05 02:46:03;;;;;;;;;;;6.40;99.90;;;;;;5014260;28;19960;-63
2022/04/05 02:48:31;;;;;;;;;;;6.40;99.90;;;;;;5011930;28;19975;-63
2022/04/05 02:51:00;;;;;;;;;;;6.40;99.90;;;;;;5012848;28;20071;-62
2022/04/05 02:53:28;;;;;;;;;;;6.40;99.90;;;;;;5007194;28;19983;-62
2022/04/05 02:55:56;;;;;;;;;;;6.40;99.90;;;;;;5014764;28;20395;-61
2022/04/05 02:58:23;;;;;;;;;;;6.40;99.90;;;;;;5012956;28;20061;-62
2022/04/05 03:00:52;;;;;;;;;;;6.40;99.90;;;;;;5009135;28;20002;-62
2022/04/05 03:03:19;;;;;;;;;;;6.50;99.90;;;;;;5013539;28;20042;-62
2022/04/05 03:05:47;;;;;;;;;;;6.50;99.90;;;;;;5014951;28;20003;-62
2022/04/05 03:08:17;;;;;;;;;;;6.50;99.90;;;;;;5005207;28;20592;-62
2022/04/05 03:10:45;;;;;;;;;;;6.50;99.90;;;;;;5009188;28;20414;-62
2022/04/05 03:13:13;;;;;;;;;;;6.50;99.90;;;;;;5016393;28;19999;-62
2022/04/05 03:15:41;;;;;;;;;;;6.50;99.90;;;;;;5017164;28;19960;-62
2022/04/05 03:18:09;;;;;;;;;;;6.50;99.90;;;;;;5008542;28;19960;-63
2022/04/05 03:20:36;;;;;;;;;;;6.50;99.90;;;;;;5008975;28;19960;-62
2022/04/05 03:23:04;;;;;;;;;;;6.50;99.90;;;;;;5005260;28;19960;-62
2022/04/05 03:25:33;;;;;;;;;;;6.50;99.90;;;;;;5078535;22;19959;-62
2022/04/05 03:28:01;;;;;;;;;;;6.50;99.90;;;;;;5062083;28;19958;-60
2022/04/05 03:30:29;;;;;;;;;;;6.50;99.90;;;;;;5064623;28;19963;-61
2022/04/05 03:32:57;;;;;;;;;;;6.50;99.90;;;;;;5068909;28;20057;-61
2022/04/05 03:35:25;;;;;;;;;;;6.60;99.90;;;;;;5055613;28;20163;-61
2022/04/05 03:37:53;;;;;;;;;;;6.50;99.90;;;;;;5049261;28;20397;-61
2022/04/05 03:40:20;;;;;;;;;;;6.60;99.90;;;;;;5050855;28;20050;-61
2022/04/05 03:42:50;;;;;;;;;;;6.60;99.90;;;;;;5049467;28;20361;-60
2022/04/05 03:45:17;;;;;;;;;;;6.60;99.90;;;;;;5050948;28;20466;-61
2022/04/05 03:47:45;;;;;;;;;;;6.60;99.90;;;;;;5049501;28;20006;-61
2022/04/05 03:50:13;;;;;;;;;;;6.60;99.90;;;;;;5051208;28;20055;-60
2022/04/05 03:52:40;;;;;;;;;;;6.60;99.90;;;;;;5050316;28;19963;-61
2022/04/05 03:55:08;;;;;;;;;;;6.60;99.90;;;;;;5051161;28;19994;-61
2022/04/05 03:57:36;;;;;;;;;;;6.60;99.90;;;;;;5050435;28;19959;-60
2022/04/05 04:00:06;;;;;;;;;;;6.70;99.90;;;;;;5051776;28;20018;-61
2022/04/05 04:02:35;;;;;;;;;;;6.70;99.90;;;;;;5050232;28;19989;-61
2022/04/05 04:05:03;;;;;;;;;;;6.60;99.90;;;;;;5048633;28;19960;-61
2022/04/05 04:07:31;;;;;;;;;;;6.60;99.90;;;;;;5051286;28;20385;-61
2022/04/05 04:10:01;;;;;;;;;;;6.50;99.90;;;;;;5051732;28;19991;-60
2022/04/05 04:12:29;;;;;;;;;;;6.60;99.90;;;;;;5048280;28;19992;-61
2022/04/05 04:14:57;;;;;;;;;;;6.60;99.90;;;;;;5048234;28;20057;-61
2022/04/05 04:17:26;;;;;;;;;;;6.60;99.90;;;;;;5051245;28;20403;-60
2022/04/05 04:19:54;;;;;;;;;;;6.60;99.90;;;;;;5051548;28;20011;-61
2022/04/05 04:22:21;;;;;;;;;;;6.60;99.90;;;;;;5051049;28;20085;-61
2022/04/05 04:24:49;;;;;;;;;;;6.60;99.90;;;;;;5032383;28;20786;-59
2022/04/05 04:27:17;;;;;;;;;;;6.70;99.90;;;;;;5038916;28;20750;-59
2022/04/05 04:29:45;;;;;;;;;;;6.60;99.90;;;;;;5038686;28;20167;-60
2022/04/05 04:32:12;;;;;;;;;;;6.70;99.90;;;;;;5035067;28;19998;-58
2022/04/05 04:34:41;;;;;;;;;;;6.60;99.90;;;;;;5039377;28;20002;-60
2022/04/05 04:37:09;;;;;;;;;;;6.70;99.90;;;;;;5041470;28;19967;-60
2022/04/05 04:39:37;;;;;;;;;;;6.70;99.90;;;;;;5035546;28;19973;-60
2022/04/05 04:42:06;;;;;;;;;;;6.70;99.90;;;;;;5041711;28;19970;-60
2022/04/05 04:44:33;;;;;;;;;;;6.70;99.90;;;;;;5041557;28;20010;-58
2022/04/05 04:47:01;;;;;;;;;;;6.70;99.90;;;;;;5041183;28;20636;-60
2022/04/05 04:49:29;;;;;;;;;;;6.70;99.90;;;;;;5037723;28;19963;-59
2022/04/05 04:51:58;;;;;;;;;;;6.80;99.90;;;;;;5040660;28;20672;-58
2022/04/05 04:54:25;;;;;;;;;;;6.70;99.90;;;;;;5034463;28;20014;-59
2022/04/05 04:56:53;;;;;;;;;;;6.70;99.90;;;;;;5046618;28;19967;-61
2022/04/05 04:59:21;;;;;;;;;;;6.70;99.90;;;;;;5043688;28;19967;-58
2022/04/05 05:01:49;;;;;;;;;;;6.80;99.90;;;;;;5039816;28;20120;-60
2022/04/05 05:04:16;;;;;;;;;;;6.80;99.90;;;;;;5040944;28;20705;-59
2022/04/05 05:06:44;;;;;;;;;;;6.80;99.90;;;;;;5044171;28;20065;-59
2022/04/05 05:09:13;;;;;;;;;;;6.80;99.90;;;;;;5048951;28;20006;-60
2022/04/05 05:11:41;;;;;;;;;;;6.80;99.90;;;;;;5043557;28;20430;-60
2022/04/05 05:14:09;;;;;;;;;;;6.80;99.90;;;;;;5043848;28;20062;-60
2022/04/05 05:16:36;;;;;;;;;;;6.80;99.90;;;;;;5040151;28;20003;-60
2022/04/05 05:19:05;;;;;;;;;;;6.80;99.90;;;;;;5038547;28;20423;-59
2022/04/05 05:21:33;;;;;;;;;;;6.80;99.90;;;;;;5038638;28;19998;-60
2022/04/05 05:24:01;;;;;;;;;;;6.80;99.90;;;;;;5039457;28;20058;-58
2022/04/05 05:26:30;;;;;;;;;;;6.80;99.90;;;;;;5046048;28;19963;-59
2022/04/05 05:28:58;;;;;;;;;;;6.80;99.90;;;;;;5044954;28;19998;-61
2022/04/05 05:31:25;;;;;;;;;;;6.80;99.90;;;;;;5041431;28;20725;-59
2022/04/05 05:33:53;;;;;;;;;;;6.80;99.90;;;;;;5041982;28;20966;-59
2022/04/05 05:36:21;;;;;;;;;;;6.90;99.90;;;;;;5040141;28;20021;-60
2022/04/05 05:38:49;;;;;;;;;;;6.90;99.90;;;;;;5049683;28;19971;-59
2022/04/05 05:41:17;;;;;;;;;;;6.90;99.90;;;;;;5046671;28;20120;-60
2022/04/05 05:43:46;;;;;;;;;;;6.90;99.90;;;;;;5038543;28;20073;-61
2022/04/05 05:46:14;;;;;;;;;;;6.80;99.90;;;;;;5044091;28;20046;-61
2022/04/05 05:48:42;;;;;;;;;;;6.70;99.90;;;;;;5043656;28;19973;-61
2022/04/05 05:51:10;;;;;;;;;;;6.70;99.90;;;;;;5038194;28;19968;-61
2022/04/05 05:53:38;;;;;;;;;;;6.70;99.90;;;;;;5041283;28;20053;-60
2022/04/05 05:56:05;;;;;;;;;;;6.80;99.90;;;;;;5042930;28;20053;-60
2022/04/05 05:58:33;;;;;;;;;;;6.80;99.90;;;;;;5039457;28;19999;-59
2022/04/05 06:01:02;;;;;;;;;;;6.70;99.90;;;;;;5037117;28;19967;-60
2022/04/05 06:03:30;;;;;;;;;;;6.80;99.90;;;;;;5046727;28;19962;-60
2022/04/05 06:05:58;;;;;;;;;;;6.70;99.90;;;;;;5045664;28;20002;-61
2022/04/05 06:08:26;;;;;;;;;;;6.80;99.90;;;;;;5039462;28;20447;-58
2022/04/05 06:10:54;;;;;;;;;;;6.70;99.90;;;;;;5048884;28;19959;-64
2022/04/05 06:13:22;;;;;;;;;;;6.80;99.90;;;;;;5048803;28;20512;-62
2022/04/05 06:15:50;;;;;;;;;;;6.70;99.90;;;;;;5052960;28;20149;-62
2022/04/05 06:18:19;;;;;;;;;;;6.80;99.90;;;;;;5053346;28;19974;-62
2022/04/05 06:20:47;;;;;;;;;;;6.80;99.90;;;;;;5055830;28;19967;-62
2022/04/05 06:23:14;;;;;;;;;;;6.80;99.90;;;;;;5052682;28;20289;-62
2022/04/05 06:25:42;;;;;;;;;;;6.80;99.90;;;;;;5053275;28;20061;-62
2022/04/05 06:28:10;;;;;;;;;;;6.80;99.90;;;;;;5053033;28;20351;-62
2022/04/05 06:30:39;;;;;;;;;;;6.80;99.90;;;;;;5052296;28;20491;-62
2022/04/05 06:33:07;;;;;;;;;;;6.80;99.90;;;;;;5052435;28;19960;-62
2022/04/05 06:35:37;;;;;;;;;;;6.80;99.90;;;;;;5053376;28;19963;-62
2022/04/05 06:38:05;;;;;;;;;;;6.80;99.90;;;;;;5053382;28;19963;-62
2022/04/05 06:40:33;;;;;;;;;;;6.80;99.90;;;;;;5051594;28;19999;-62
2022/04/05 06:43:01;;;;;;;;;;;6.80;99.90;;;;;;5052527;28;20407;-62
2022/04/05 06:45:29;;;;;;;;;;;6.80;99.90;;;;;;5052919;28;20386;-62
2022/04/05 06:47:57;;;;;;;;;;;6.80;99.90;;;;;;5053006;28;19969;-61
2022/04/05 06:50:25;;;;;;;;;;;6.80;99.90;;;;;;5053242;28;19963;-62
2022/04/05 06:52:55;;;;;;;;;;;6.80;99.90;;;;;;5052506;28;19963;-61
2022/04/05 06:55:23;;;;;;;;;;;6.80;99.90;;;;;;5052891;28;19963;-62
2022/04/05 06:57:51;;;;;;;;;;;6.80;99.90;;;;;;5052898;28;19963;-62
2022/04/05 07:00:22;;;;;;;;;;;6.80;99.90;;;;;;5052718;28;19963;-62
2022/04/05 07:02:50;;;;;;;;;;;6.90;99.90;;;;;;5052401;28;20044;-62
2022/04/05 07:05:18;;;;;;;;;;;6.90;99.90;;;;;;5046656;28;19989;-62
2022/04/05 07:07:46;;;;;;;;;;;6.90;99.90;;;;;;5052686;28;20441;-62
2022/04/05 07:10:16;;;;;;;;;;;6.90;99.90;;;;;;5053008;28;19967;-61
2022/04/05 07:12:44;;;;;;;;;;;6.90;99.90;;;;;;5045798;28;19968;-61
2022/04/05 07:15:12;;;;;;;;;;;7.00;99.90;;;;;;5046485;28;19994;-62
2022/04/05 07:17:40;;;;;;;;;;;6.90;99.90;;;;;;5048878;28;20420;-62
2022/04/05 07:20:28;;;;;;;;;;;6.90;99.90;;;;;;5048556;28;20066;-62
2022/04/05 07:22:56;;;;;;;;;;;7.00;99.90;;;;;;5051956;28;19983;-62
2022/04/05 07:25:26;;;;;;;;;;;7.10;99.90;;;;;;5052589;28;19991;-61
2022/04/05 07:27:54;;;;;;;;;;;7.00;99.90;;;;;;5052284;28;19967;-61
2022/04/05 07:30:23;;;;;;;;;;;7.10;99.90;;;;;;5052368;28;20435;-62
2022/04/05 07:32:50;;;;;;;;;;;7.10;99.90;;;;;;5051759;28;19968;-62
2022/04/05 07:35:18;;;;;;;;;;;7.20;99.90;;;;;;5052482;28;20025;-62
2022/04/05 07:37:46;;;;;;;;;;;7.20;99.90;;;;;;5052361;28;20009;-61
2022/04/05 07:40:15;;;;;;;;;;;7.30;99.90;;;;;;5052419;28;20471;-61
2022/04/05 07:42:44;;;;;;;;;;;7.20;99.90;;;;;;5051534;28;20009;-61
2022/04/05 07:45:12;;;;;;;;;;;7.30;99.90;;;;;;5051647;28;20502;-62
2022/04/05 07:47:40;;;;;;;;;;;7.30;99.90;;;;;;5052063;28;20013;-62
2022/04/05 07:50:09;;;;;;;;;;;7.40;99.90;;;;;;5051863;28;19971;-62
2022/04/05 07:52:37;;;;;;;;;;;7.30;99.90;;;;;;5051384;28;19967;-62
2022/04/05 07:55:05;;;;;;;;;;;7.40;99.90;;;;;;5051879;28;20017;-62
2022/04/05 07:57:36;;;;;;;;;;;7.40;99.90;;;;;;5051961;28;19964;-62
2022/04/05 08:00:06;;;;;;;;;;;7.40;99.90;;;;;;5051635;28;21837;-62
2022/04/05 08:02:34;;;;;;;;;;;7.50;99.90;;;;;;5051264;28;20119;-62
2022/04/05 08:05:13;;;;;;;;;;;7.50;99.90;;;;;;5052120;28;19967;-61
2022/04/05 08:07:41;;;;;;;;;;;7.50;99.90;;;;;;5051767;28;19964;-62
2022/04/05 08:10:09;;;;;;;;;;;7.40;99.90;;;;;;5051776;28;20495;-61
2022/04/05 08:12:38;;;;;;;;;;;7.50;99.90;;;;;;5051238;28;19963;-61
2022/04/05 08:15:08;;;;;;;;;;;7.50;99.90;;;;;;5049660;28;20005;-62
2022/04/05 08:17:36;;;;;;;;;;;7.50;99.90;;;;;;5051638;28;20017;-62
2022/04/05 08:20:05;;;;;;;;;;;7.50;99.90;;;;;;5051340;28;20006;-62
2022/04/05 08:22:32;;;;;;;;;;;7.50;99.90;;;;;;5051380;28;20014;-62
2022/04/05 08:25:01;;;;;;;;;;;7.70;99.90;;;;;;5051105;28;20049;-61
2022/04/05 08:27:28;;;;;;;;;;;7.70;99.90;;;;;;5051409;28;20480;-62
2022/04/05 08:29:56;;;;;;;;;;;7.70;99.90;;;;;;5050117;28;19963;-62
2022/04/05 08:32:25;;;;;;;;;;;7.80;99.90;;;;;;5050796;28;19967;-62
2022/04/05 08:34:53;;;;;;;;;;;7.80;99.90;;;;;;5051167;28;20057;-61
2022/04/05 08:37:23;;;;;;;;;;;7.80;99.90;;;;;;5051222;28;20486;-61
2022/04/05 08:39:50;;;;;;;;;;;7.80;99.90;;;;;;5051334;28;19964;-61
2022/04/05 08:42:18;;;;;;;;;;;7.80;99.90;;;;;;5050577;28;19968;-62
2022/04/05 08:44:47;;;;;;;;;;;7.80;99.90;;;;;;5050965;28;19966;-62
2022/04/05 08:47:15;;;;;;;;;;;7.80;99.90;;;;;;5051252;28;19963;-62
2022/04/05 08:49:44;;;;;;;;;;;7.90;99.90;;;;;;5051067;28;20066;-62
2022/04/05 08:52:12;;;;;;;;;;;7.90;99.90;;;;;;5050636;28;20059;-62
2022/04/05 08:54:39;;;;;;;;;;;7.90;99.90;;;;;;5051162;28;20073;-62
2022/04/05 08:57:07;;;;;;;;;;;7.90;99.90;;;;;;5051418;28;19967;-62
2022/04/05 08:59:35;;;;;;;;;;;8.00;99.90;;;;;;5051081;28;20018;-62
2022/04/05 09:02:02;;;;;;;;;;;8.10;99.90;;;;;;5050445;28;19963;-61
2022/04/05 09:04:32;;;;;;;;;;;8.20;99.90;;;;;;5050906;28;20346;-62
2022/04/05 09:07:17;;;;;;;;;;;8.30;99.90;;;;;;5051229;28;20003;-62
2022/04/05 09:09:45;;;;;;;;;;;8.30;99.90;;;;;;5045040;28;20053;-62
2022/04/05 09:12:16;;;;;;;;;;;8.30;99.90;;;;;;5051050;28;20419;-60
2022/04/05 09:14:44;;;;;;;;;;;8.40;99.90;;;;;;5050655;28;20377;-62
2022/04/05 09:17:13;;;;;;;;;;;8.40;99.90;;;;;;5050909;28;20488;-62
2022/04/05 09:19:45;;;;;;;;;;;8.50;99.90;;;;;;5050835;28;19989;-62
2022/04/05 09:22:14;;;;;;;;;;;8.50;99.90;;;;;;5050815;28;19971;-62
2022/04/05 09:24:43;;;;;;;;;;;8.60;99.90;;;;;;5051882;28;19967;-62
2022/04/05 09:27:11;;;;;;;;;;;8.70;99.90;;;;;;5050897;28;19971;-62
2022/04/05 09:29:39;;;;;;;;;;;8.70;99.90;;;;;;5050717;28;19982;-62
2022/04/05 09:32:07;;;;;;;;;;;8.70;99.90;;;;;;5050203;28;19970;-62
2022/04/05 09:34:47;;;;;;;;;;;8.70;99.90;;;;;;5050665;28;20065;-62
2022/04/05 09:37:16;;;;;;;;;;;8.80;99.90;;;;;;5050726;28;20437;-62
2022/04/05 09:39:44;;;;;;;;;;;8.90;99.90;;;;;;5050441;28;19967;-62
2022/04/05 09:42:11;;;;;;;;;;;9.10;99.90;;;;;;5052497;28;20018;-62
2022/04/05 09:44:40;;;;;;;;;;;9.20;99.90;;;;;;5054188;28;20030;-61
2022/04/05 09:47:09;;;;;;;;;;;9.30;99.90;;;;;;5054551;28;20014;-62
2022/04/05 09:49:38;;;;;;;;;;;9.40;99.90;;;;;;5054307;28;20002;-61
2022/04/05 09:52:21;;;;;;;;;;;9.70;99.90;;;;;;5053916;28;20062;-62
2022/04/05 09:54:50;;;;;;;;;;;9.80;99.90;;;;;;5054087;28;20466;-62
2022/04/05 09:57:28;;;;;;;;;;;9.90;99.90;;;;;;5054105;28;19967;-62
2022/04/05 10:00:05;;;;;;;;;;;10.00;99.90;;;;;;5053821;28;20344;-62
2022/04/05 10:02:33;;;;;;;;;;;10.00;99.90;;;;;;5053361;28;19963;-62
2022/04/05 10:05:02;;;;;;;;;;;10.20;99.90;;;;;;5054134;28;20006;-61
2022/04/05 10:07:30;;;;;;;;;;;10.50;99.90;;;;;;5053897;28;19998;-62
2022/04/05 10:10:00;;;;;;;;;;;10.80;99.90;;;;;;5053643;28;20069;-62
2022/04/05 10:12:28;;;;;;;;;;;11.10;99.90;;;;;;5053354;28;19965;-61
2022/04/05 10:14:56;;;;;;;;;;;11.20;99.90;;;;;;5051132;28;19966;-62
2022/04/05 10:17:25;;;;;;;;;;;11.30;99.90;;;;;;5053501;28;19958;-63
2022/04/05 10:19:54;;;;;;;;;;;11.60;99.90;;;;;;5053291;28;19959;-62
2022/04/05 10:22:23;;;;;;;;;;;11.70;99.90;;;;;;5052809;28;19965;-63
2022/04/05 10:24:52;;;;;;;;;;;11.80;99.90;;;;;;5053268;28;19966;-63
2022/04/05 10:27:22;;;;;;;;;;;11.80;99.90;;;;;;5053517;28;20065;-62
2022/04/05 10:29:51;;;;;;;;;;;11.70;99.90;;;;;;5053197;28;20016;-62
2022/04/05 10:32:24;;;;;;;;;;;11.70;99.90;;;;;;5052919;28;20726;-62
2022/04/05 10:34:55;;;;;;;;;;;11.70;99.90;;;;;;5053383;28;20407;-63
2022/04/05 10:37:30;;;;;;;;;;;11.90;99.90;;;;;;5053415;28;19966;-63
2022/04/05 10:40:11;;;;;;;;;;;11.80;99.90;;;;;;5053462;28;20064;-62
2022/04/05 10:42:43;;;;;;;;;;;11.90;99.90;;;;;;5052498;28;19962;-63
2022/04/05 10:45:12;;;;;;;;;;;12.10;99.90;;;;;;5053230;28;20002;-63
2022/04/05 10:47:56;;;;;;;;;;;12.50;99.90;;;;;;5053114;28;20192;-63
2022/04/05 10:50:44;;;;;;;;;;;12.70;99.90;;;;;;5053003;28;19980;-63
2022/04/05 10:53:14;;;;;;;;;;;13.20;99.90;;;;;;5051472;28;20454;-63
2022/04/05 10:56:00;;;;;;;;;;;13.60;99.90;;;;;;5052871;28;20005;-63
2022/04/05 10:58:29;;;;;;;;;;;13.50;99.90;;;;;;5046492;28;19959;-63
2022/04/05 11:01:12;;;;;;;;;;;13.70;99.90;;;;;;5046479;28;20390;-63
2022/04/05 11:03:40;;;;;;;;;;;14.00;99.90;;;;;;5052081;28;19958;-62
2022/04/05 11:06:08;;;;;;;;;;;14.10;99.90;;;;;;5052664;28;20389;-62
2022/04/05 11:08:36;;;;;;;;;;;13.80;99.90;;;;;;5053051;28;20481;-63
2022/04/05 11:11:08;;;;;;;;;;;13.60;99.90;;;;;;5052522;28;20312;-63
2022/04/05 11:13:42;;;;;;;;;;;13.70;99.90;;;;;;5052179;28;19993;-62
2022/04/05 11:16:11;;;;;;;;;;;13.90;99.90;;;;;;5052491;28;19966;-63
2022/04/05 11:18:41;;;;;;;;;;;14.30;99.90;;;;;;5052416;28;19928;-63
2022/04/05 11:21:09;;;;;;;;;;;14.20;99.90;;;;;;5052320;28;19997;-63
2022/04/05 11:23:40;;;;;;;;;;;13.90;99.90;;;;;;5051502;28;19963;-63
2022/04/05 11:26:27;;;;;;;;;;;13.70;99.90;;;;;;5052724;28;20010;-63
2022/04/05 11:28:58;;;;;;;;;;;13.50;99.90;;;;;;5052589;28;19963;-63
2022/04/05 11:31:30;;;;;;;;;;;13.20;99.90;;;;;;5051694;28;19967;-62
2022/04/05 11:33:58;;;;;;;;;;;12.80;99.90;;;;;;5051587;28;19995;-63
2022/04/05 11:36:26;;;;;;;;;;;12.70;99.90;;;;;;5052098;28;20054;-63
2022/04/05 11:38:56;;;;;;;;;;;12.60;99.90;;;;;;5052292;28;20474;-63
2022/04/05 11:41:25;;;;;;;;;;;12.60;99.90;;;;;;5052134;28;20053;-63
2022/04/05 11:43:54;;;;;;;;;;;12.60;99.90;;;;;;5051681;28;20098;-62
2022/04/05 11:46:26;;;;;;;;;;;12.40;99.90;;;;;;5051683;28;20519;-63
2022/04/05 11:48:55;;;;;;;;;;;12.30;99.90;;;;;;5051674;28;19961;-62
2022/04/05 11:51:23;;;;;;;;;;;12.10;99.90;;;;;;5051867;28;20005;-63
2022/04/05 11:54:04;;;;;;;;;;;12.20;99.90;;;;;;5051283;28;19963;-63
2022/04/05 11:56:34;;;;;;;;;;;12.20;99.90;;;;;;5051864;28;20002;-63
2022/04/05 11:59:02;;;;;;;;;;;12.20;99.90;;;;;;5051434;28;20440;-62
2022/04/05 12:01:32;;;;;;;;;;;12.20;99.90;;;;;;5051753;28;20329;-63
2022/04/05 12:04:01;;;;;;;;;;;12.20;99.90;;;;;;5051098;28;19970;-63
2022/04/05 12:06:39;;;;;;;;;;;12.20;99.90;;;;;;5051459;28;19959;-63
2022/04/05 12:09:08;;;;;;;;;;;12.10;99.90;;;;;;5051769;28;19965;-63
2022/04/05 12:11:37;;;;;;;;;;;12.00;99.90;;;;;;5051636;28;19981;-62
2022/04/05 12:14:05;;;;;;;;;;;11.90;99.90;;;;;;5050760;28;20001;-61
2022/04/05 12:16:45;;;;;;;;;;;11.80;99.90;;;;;;5049902;28;20025;-63
2022/04/05 12:19:17;;;;;;;;;;;11.80;99.90;;;;;;5045104;28;20001;-62
2022/04/05 12:21:45;;;;;;;;;;;11.80;99.90;;;;;;5051751;28;20398;-63
2022/04/05 12:24:15;;;;;;;;;;;11.80;99.90;;;;;;5050768;28;20028;-63
2022/04/05 12:26:42;;;;;;;;;;;11.80;99.90;;;;;;5051284;28;20035;-62
2022/04/05 12:29:10;;;;;;;;;;;11.90;99.90;;;;;;5051416;28;19963;-63
2022/04/05 12:31:38;;;;;;;;;;;11.90;99.90;;;;;;5051149;28;19992;-63
2022/04/05 12:34:10;;;;;;;;;;;11.90;99.90;;;;;;5050638;28;20394;-63
2022/04/05 12:36:39;;;;;;;;;;;11.90;99.90;;;;;;5051478;28;20035;-62
2022/04/05 12:39:08;;;;;;;;;;;11.70;99.90;;;;;;5051519;28;19964;-63
2022/04/05 12:41:39;;;;;;;;;;;11.70;99.90;;;;;;5051188;28;20009;-62
2022/04/05 12:44:08;;;;;;;;;;;11.70;99.90;;;;;;5050399;28;20422;-63
2022/04/05 12:46:37;;;;;;;;;;;11.70;99.90;;;;;;5050848;28;19957;-63
2022/04/05 12:49:15;;;;;;;;;;;11.60;99.90;;;;;;5046265;28;19962;-63
2022/04/05 12:52:09;;;;;;;;;;;11.50;99.90;;;;;;5050848;28;20055;-62
2022/04/05 12:54:38;;;;;;;;;;;11.50;99.90;;;;;;5051150;28;19961;-63
2022/04/05 12:57:15;;;;;;;;;;;11.50;99.90;;;;;;5051243;28;20459;-63
2022/04/05 12:59:43;;;;;;;;;;;11.60;99.90;;;;;;5051479;28;19966;-63
2022/04/05 13:02:18;;;;;;;;;;;11.50;99.90;;;;;;5050747;28;19992;-62
2022/04/05 13:04:48;;;;;;;;;;;11.50;99.90;;;;;;5051125;28;20054;-63
2022/04/05 13:07:16;;;;;;;;;;;11.50;99.90;;;;;;5051037;28;19966;-62
2022/04/05 13:09:44;;;;;;;;;;;11.50;99.90;;;;;;5050927;28;20001;-62
2022/04/05 13:12:13;;;;;;;;;;;11.50;99.90;;;;;;5050590;28;19962;-63
2022/04/05 13:14:41;;;;;;;;;;;11.60;99.90;;;;;;5050588;28;20496;-63
2022/04/05 13:17:11;;;;;;;;;;;11.60;99.90;;;;;;5053342;28;19960;-63
2022/04/05 13:19:39;;;;;;;;;;;11.70;99.90;;;;;;5054843;28;20440;-62
2022/04/05 13:22:15;;;;;;;;;;;11.60;99.90;;;;;;5054296;28;20058;-62
2022/04/05 13:24:43;;;;;;;;;;;11.50;99.90;;;;;;5054375;28;19994;-61
2022/04/05 13:27:12;;;;;;;;;;;11.40;99.90;;;;;;5055133;28;20366;-62
2022/04/05 13:29:42;;;;;;;;;;;11.40;99.90;;;;;;5054588;28;20641;-62
2022/04/05 13:32:15;;;;;;;;;;;11.40;99.90;;;;;;5054056;28;20474;-62
2022/04/05 13:34:44;;;;;;;;;;;11.30;99.90;;;;;;5054848;28;20126;-62
2022/04/05 13:37:17;;;;;;;;;;;11.30;99.90;;;;;;5054793;28;20003;-62
2022/04/05 13:39:48;;;;;;;;;;;11.20;99.90;;;;;;5054597;28;20010;-62
2022/04/05 13:42:16;;;;;;;;;;;11.00;99.90;;;;;;5053950;28;19965;-62
2022/04/05 13:44:45;;;;;;;;;;;10.90;99.90;;;;;;5054006;28;19972;-62
2022/04/05 13:47:12;;;;;;;;;;;10.90;99.90;;;;;;5054092;28;19963;-63
2022/04/05 13:49:41;;;;;;;;;;;10.90;99.90;;;;;;5054331;28;20005;-62
2022/04/05 13:52:09;;;;;;;;;;;10.90;99.90;;;;;;5053687;28;19963;-63
2022/04/05 13:54:52;;;;;;;;;;;11.00;99.90;;;;;;5054115;28;20445;-63
2022/04/05 13:57:20;;;;;;;;;;;10.90;99.90;;;;;;5054368;28;20436;-62
2022/04/05 13:59:48;;;;;;;;;;;10.90;99.90;;;;;;5054198;28;20024;-63
2022/04/05 14:02:17;;;;;;;;;;;10.90;99.90;;;;;;5053699;28;20058;-63
2022/04/05 14:04:45;;;;;;;;;;;10.90;99.90;;;;;;5054458;28;19993;-63
2022/04/05 14:07:14;;;;;;;;;;;10.80;99.90;;;;;;5054528;28;20441;-63
2022/04/05 14:09:42;;;;;;;;;;;10.70;99.90;;;;;;5054735;28;19968;-63
2022/04/05 14:12:14;;;;;;;;;;;10.70;99.90;;;;;;5053730;28;19964;-63
2022/04/05 14:14:42;;;;;;;;;;;10.70;99.90;;;;;;5054034;28;20025;-62
2022/04/05 14:17:09;;;;;;;;;;;10.70;99.90;;;;;;5053896;28;20417;-63
2022/04/05 14:19:37;;;;;;;;;;;10.70;99.90;;;;;;5054160;28;20448;-62
2022/04/05 14:22:05;;;;;;;;;;;10.60;99.90;;;;;;5053224;28;20018;-63
2022/04/05 14:24:33;;;;;;;;;;;10.60;99.90;;;;;;5053694;28;20116;-62
2022/04/05 14:27:00;;;;;;;;;;;10.60;99.90;;;;;;5053340;28;20018;-63
2022/04/05 14:29:29;;;;;;;;;;;10.70;99.90;;;;;;5053225;28;19963;-62
2022/04/05 14:31:57;;;;;;;;;;;10.70;99.90;;;;;;5053419;28;20045;-62
2022/04/05 14:34:25;;;;;;;;;;;10.70;99.90;;;;;;5053521;28;20345;-62
2022/04/05 14:36:53;;;;;;;;;;;10.60;99.90;;;;;;5053574;28;19971;-63